sensor_id;sensor_type;location;lat;lon;timestamp;temperature;humidity
75430;DHT22;64127;51.488;5.462;2023-05-14T00:00:31;18.50;95.60
75430;DHT22;64127;51.488;5.462;2023-05-14T00:03:03;18.50;95.70
75430;DHT22;64127;51.488;5.462;2023-05-14T00:05:35;18.40;95.60
75430;DHT22;64127;51.488;5.462;2023-05-14T00:08:07;18.40;95.80
75430;DHT22;64127;51.488;5.462;2023-05-14T00:10:39;18.40;95.80
75430;DHT22;64127;51.488;5.462;2023-05-14T00:13:11;18.30;95.80
75430;DHT22;64127;51.488;5.462;2023-05-14T00:15:43;18.40;96.00
75430;DHT22;64127;51.488;5.462;2023-05-14T00:18:15;18.30;96.10
75430;DHT22;64127;51.488;5.462;2023-05-14T00:20:47;18.30;96.10
75430;DHT22;64127;51.488;5.462;2023-05-14T00:23:22;18.30;96.20
75430;DHT22;64127;51.488;5.462;2023-05-14T00:25:55;18.30;96.40
75430;DHT22;64127;51.488;5.462;2023-05-14T00:28:27;18.20;96.40
75430;DHT22;64127;51.488;5.462;2023-05-14T00:30:59;18.20;96.50
75430;DHT22;64127;51.488;5.462;2023-05-14T00:33:31;18.20;96.60
75430;DHT22;64127;51.488;5.462;2023-05-14T00:36:03;18.20;96.70
75430;DHT22;64127;51.488;5.462;2023-05-14T00:38:35;18.20;96.60
75430;DHT22;64127;51.488;5.462;2023-05-14T00:41:07;18.20;96.70
75430;DHT22;64127;51.488;5.462;2023-05-14T00:43:39;18.20;96.90
75430;DHT22;64127;51.488;5.462;2023-05-14T00:46:11;18.10;97.00
75430;DHT22;64127;51.488;5.462;2023-05-14T00:48:45;18.10;97.10
75430;DHT22;64127;51.488;5.462;2023-05-14T00:51:17;18.10;97.30
75430;DHT22;64127;51.488;5.462;2023-05-14T00:53:49;18.00;97.50
75430;DHT22;64127;51.488;5.462;2023-05-14T00:56:22;18.00;97.60
75430;DHT22;64127;51.488;5.462;2023-05-14T00:58:55;17.90;97.70
75430;DHT22;64127;51.488;5.462;2023-05-14T01:01:27;17.80;97.80
75430;DHT22;64127;51.488;5.462;2023-05-14T01:03:59;17.80;97.90
75430;DHT22;64127;51.488;5.462;2023-05-14T01:06:44;17.80;97.90
75430;DHT22;64127;51.488;5.462;2023-05-14T01:14:56;17.60;98.30
75430;DHT22;64127;51.488;5.462;2023-05-14T01:17:42;17.60;98.50
75430;DHT22;64127;51.488;5.462;2023-05-14T01:20:25;17.50;98.60
75430;DHT22;64127;51.488;5.462;2023-05-14T01:22:57;17.40;98.70
75430;DHT22;64127;51.488;5.462;2023-05-14T01:25:30;17.40;98.80
75430;DHT22;64127;51.488;5.462;2023-05-14T01:28:14;17.30;98.80
75430;DHT22;64127;51.488;5.462;2023-05-14T01:30:56;17.30;99.00
75430;DHT22;64127;51.488;5.462;2023-05-14T01:33:32;17.30;99.10
75430;DHT22;64127;51.488;5.462;2023-05-14T01:36:06;17.20;99.10
75430;DHT22;64127;51.488;5.462;2023-05-14T01:38:39;17.20;99.30
75430;DHT22;64127;51.488;5.462;2023-05-14T01:41:18;17.20;99.50
75430;DHT22;64127;51.488;5.462;2023-05-14T01:43:50;17.20;99.70
75430;DHT22;64127;51.488;5.462;2023-05-14T01:46:22;17.10;99.80
75430;DHT22;64127;51.488;5.462;2023-05-14T01:48:55;17.10;99.80
75430;DHT22;64127;51.488;5.462;2023-05-14T01:51:27;17.10;99.90
75430;DHT22;64127;51.488;5.462;2023-05-14T01:53:59;17.00;99.90
75430;DHT22;64127;51.488;5.462;2023-05-14T01:56:31;17.00;99.90
75430;DHT22;64127;51.488;5.462;2023-05-14T01:59:03;16.90;99.90
75430;DHT22;64127;51.488;5.462;2023-05-14T02:01:35;16.90;99.90
75430;DHT22;64127;51.488;5.462;2023-05-14T02:04:07;16.90;99.90
75430;DHT22;64127;51.488;5.462;2023-05-14T02:06:39;16.80;99.90
75430;DHT22;64127;51.488;5.462;2023-05-14T02:09:11;16.80;99.90
75430;DHT22;64127;51.488;5.462;2023-05-14T02:11:43;16.70;99.90
75430;DHT22;64127;51.488;5.462;2023-05-14T02:14:15;16.70;99.90
75430;DHT22;64127;51.488;5.462;2023-05-14T02:16:47;16.70;99.90
75430;DHT22;64127;51.488;5.462;2023-05-14T02:19:21;16.60;99.90
75430;DHT22;64127;51.488;5.462;2023-05-14T02:21:53;16.60;99.90
75430;DHT22;64127;51.488;5.462;2023-05-14T02:24:26;16.60;99.90
75430;DHT22;64127;51.488;5.462;2023-05-14T02:26:58;16.50;99.90
75430;DHT22;64127;51.488;5.462;2023-05-14T02:29:31;16.50;99.90
75430;DHT22;64127;51.488;5.462;2023-05-14T02:32:03;16.40;99.90
75430;DHT22;64127;51.488;5.462;2023-05-14T02:34:36;16.40;99.90
75430;DHT22;64127;51.488;5.462;2023-05-14T02:37:09;16.40;99.90
75430;DHT22;64127;51.488;5.462;2023-05-14T02:39:41;16.40;99.90
75430;DHT22;64127;51.488;5.462;2023-05-14T02:42:13;16.30;99.90
75430;DHT22;64127;51.488;5.462;2023-05-14T02:44:45;16.30;99.90
75430;DHT22;64127;51.488;5.462;2023-05-14T02:47:17;16.30;99.90
75430;DHT22;64127;51.488;5.462;2023-05-14T02:49:49;16.30;99.90
75430;DHT22;64127;51.488;5.462;2023-05-14T02:52:21;16.20;99.90
75430;DHT22;64127;51.488;5.462;2023-05-14T02:54:53;16.20;99.90
75430;DHT22;64127;51.488;5.462;2023-05-14T02:57:25;16.20;99.90
75430;DHT22;64127;51.488;5.462;2023-05-14T02:59:57;16.20;99.90
75430;DHT22;64127;51.488;5.462;2023-05-14T03:02:30;16.20;99.90
75430;DHT22;64127;51.488;5.462;2023-05-14T03:05:02;16.20;99.90
75430;DHT22;64127;51.488;5.462;2023-05-14T03:07:35;16.20;99.90
75430;DHT22;64127;51.488;5.462;2023-05-14T03:10:07;16.20;99.90
75430;DHT22;64127;51.488;5.462;2023-05-14T03:12:39;16.20;99.90
75430;DHT22;64127;51.488;5.462;2023-05-14T03:15:11;16.20;99.90
75430;DHT22;64127;51.488;5.462;2023-05-14T03:17:43;16.20;99.90
75430;DHT22;64127;51.488;5.462;2023-05-14T03:20:15;16.10;99.90
75430;DHT22;64127;51.488;5.462;2023-05-14T03:22:48;16.10;99.90
75430;DHT22;64127;51.488;5.462;2023-05-14T03:25:19;16.10;99.90
75430;DHT22;64127;51.488;5.462;2023-05-14T03:27:52;16.00;99.90
75430;DHT22;64127;51.488;5.462;2023-05-14T03:30:24;16.00;99.90
75430;DHT22;64127;51.488;5.462;2023-05-14T03:32:57;16.00;99.90
75430;DHT22;64127;51.488;5.462;2023-05-14T03:35:30;16.00;99.90
75430;DHT22;64127;51.488;5.462;2023-05-14T03:38:02;15.90;99.90
75430;DHT22;64127;51.488;5.462;2023-05-14T03:40:34;15.90;99.90
75430;DHT22;64127;51.488;5.462;2023-05-14T03:43:06;15.90;99.90
75430;DHT22;64127;51.488;5.462;2023-05-14T03:45:38;15.90;99.90
75430;DHT22;64127;51.488;5.462;2023-05-14T03:48:11;15.90;99.90
75430;DHT22;64127;51.488;5.462;2023-05-14T03:50:43;15.80;99.90
75430;DHT22;64127;51.488;5.462;2023-05-14T03:53:15;15.80;99.90
75430;DHT22;64127;51.488;5.462;2023-05-14T03:55:47;15.70;99.90
75430;DHT22;64127;51.488;5.462;2023-05-14T03:58:19;15.70;99.90
75430;DHT22;64127;51.488;5.462;2023-05-14T04:00:51;15.70;99.90
75430;DHT22;64127;51.488;5.462;2023-05-14T04:03:23;15.60;99.90
75430;DHT22;64127;51.488;5.462;2023-05-14T04:05:55;15.60;99.90
75430;DHT22;64127;51.488;5.462;2023-05-14T04:08:27;15.50;99.90
75430;DHT22;64127;51.488;5.462;2023-05-14T04:10:59;15.50;99.90
75430;DHT22;64127;51.488;5.462;2023-05-14T04:13:31;15.50;99.90
75430;DHT22;64127;51.488;5.462;2023-05-14T04:16:03;15.50;99.90
75430;DHT22;64127;51.488;5.462;2023-05-14T04:18:36;15.50;99.90
75430;DHT22;64127;51.488;5.462;2023-05-14T04:21:08;15.40;99.90
75430;DHT22;64127;51.488;5.462;2023-05-14T04:23:40;15.40;99.90
75430;DHT22;64127;51.488;5.462;2023-05-14T04:26:12;15.40;99.90
75430;DHT22;64127;51.488;5.462;2023-05-14T04:28:44;15.50;99.90
75430;DHT22;64127;51.488;5.462;2023-05-14T04:31:16;15.40;99.90
75430;DHT22;64127;51.488;5.462;2023-05-14T04:33:48;15.40;99.90
75430;DHT22;64127;51.488;5.462;2023-05-14T04:36:20;15.40;99.90
75430;DHT22;64127;51.488;5.462;2023-05-14T04:38:52;15.40;99.90
75430;DHT22;64127;51.488;5.462;2023-05-14T04:41:24;15.40;99.90
75430;DHT22;64127;51.488;5.462;2023-05-14T04:43:56;15.40;99.90
75430;DHT22;64127;51.488;5.462;2023-05-14T04:46:29;15.40;99.90
75430;DHT22;64127;51.488;5.462;2023-05-14T04:49:01;15.40;99.90
75430;DHT22;64127;51.488;5.462;2023-05-14T04:51:33;15.40;99.90
75430;DHT22;64127;51.488;5.462;2023-05-14T04:54:05;15.40;99.90
75430;DHT22;64127;51.488;5.462;2023-05-14T04:56:37;15.40;99.90
75430;DHT22;64127;51.488;5.462;2023-05-14T04:59:09;15.40;99.90
75430;DHT22;64127;51.488;5.462;2023-05-14T05:01:41;15.40;99.90
75430;DHT22;64127;51.488;5.462;2023-05-14T05:04:13;15.40;99.90
75430;DHT22;64127;51.488;5.462;2023-05-14T05:06:45;15.40;99.90
75430;DHT22;64127;51.488;5.462;2023-05-14T05:09:17;15.40;99.90
75430;DHT22;64127;51.488;5.462;2023-05-14T05:11:49;15.40;99.90
75430;DHT22;64127;51.488;5.462;2023-05-14T05:14:21;15.40;99.90
75430;DHT22;64127;51.488;5.462;2023-05-14T05:16:53;15.40;99.90
75430;DHT22;64127;51.488;5.462;2023-05-14T05:19:25;15.50;99.90
75430;DHT22;64127;51.488;5.462;2023-05-14T05:22:14;15.50;99.90
75430;DHT22;64127;51.488;5.462;2023-05-14T05:24:46;15.40;99.90
75430;DHT22;64127;51.488;5.462;2023-05-14T05:27:20;15.50;99.90
75430;DHT22;64127;51.488;5.462;2023-05-14T05:29:52;15.40;99.90
75430;DHT22;64127;51.488;5.462;2023-05-14T05:32:24;15.50;99.90
75430;DHT22;64127;51.488;5.462;2023-05-14T05:34:56;15.50;99.90
75430;DHT22;64127;51.488;5.462;2023-05-14T05:37:29;15.50;99.90
75430;DHT22;64127;51.488;5.462;2023-05-14T05:40:03;15.50;99.90
75430;DHT22;64127;51.488;5.462;2023-05-14T05:42:36;15.60;99.90
75430;DHT22;64127;51.488;5.462;2023-05-14T05:45:08;15.60;99.90
75430;DHT22;64127;51.488;5.462;2023-05-14T05:47:41;15.70;99.90
75430;DHT22;64127;51.488;5.462;2023-05-14T05:50:13;15.80;99.90
75430;DHT22;64127;51.488;5.462;2023-05-14T05:52:45;15.90;99.90
75430;DHT22;64127;51.488;5.462;2023-05-14T05:55:17;16.00;99.90
75430;DHT22;64127;51.488;5.462;2023-05-14T05:57:49;16.10;99.90
75430;DHT22;64127;51.488;5.462;2023-05-14T06:00:21;16.10;99.90
75430;DHT22;64127;51.488;5.462;2023-05-14T06:02:55;16.20;99.90
75430;DHT22;64127;51.488;5.462;2023-05-14T06:05:27;16.20;99.90
75430;DHT22;64127;51.488;5.462;2023-05-14T06:07:59;16.30;99.90
75430;DHT22;64127;51.488;5.462;2023-05-14T06:10:32;16.40;99.90
75430;DHT22;64127;51.488;5.462;2023-05-14T06:13:05;16.40;99.90
75430;DHT22;64127;51.488;5.462;2023-05-14T06:15:37;16.40;99.90
75430;DHT22;64127;51.488;5.462;2023-05-14T06:18:09;16.40;99.90
75430;DHT22;64127;51.488;5.462;2023-05-14T06:20:41;16.50;99.90
75430;DHT22;64127;51.488;5.462;2023-05-14T06:23:13;16.60;99.90
75430;DHT22;64127;51.488;5.462;2023-05-14T06:25:45;16.70;99.90
75430;DHT22;64127;51.488;5.462;2023-05-14T06:28:20;16.80;99.90
75430;DHT22;64127;51.488;5.462;2023-05-14T06:30:52;16.90;99.90
75430;DHT22;64127;51.488;5.462;2023-05-14T06:33:24;17.00;99.90
75430;DHT22;64127;51.488;5.462;2023-05-14T06:36:04;17.20;99.90
75430;DHT22;64127;51.488;5.462;2023-05-14T06:38:37;17.40;99.90
75430;DHT22;64127;51.488;5.462;2023-05-14T06:41:09;17.60;99.90
75430;DHT22;64127;51.488;5.462;2023-05-14T06:43:41;17.80;99.90
75430;DHT22;64127;51.488;5.462;2023-05-14T06:46:12;18.00;99.90
75430;DHT22;64127;51.488;5.462;2023-05-14T06:48:44;18.10;99.90
75430;DHT22;64127;51.488;5.462;2023-05-14T06:51:16;18.30;99.90
75430;DHT22;64127;51.488;5.462;2023-05-14T06:53:48;18.40;99.90
75430;DHT22;64127;51.488;5.462;2023-05-14T06:56:21;18.50;99.90
75430;DHT22;64127;51.488;5.462;2023-05-14T06:58:53;18.60;99.90
75430;DHT22;64127;51.488;5.462;2023-05-14T07:01:25;18.60;99.90
75430;DHT22;64127;51.488;5.462;2023-05-14T07:03:57;18.50;99.90
75430;DHT22;64127;51.488;5.462;2023-05-14T07:06:29;18.50;99.90
75430;DHT22;64127;51.488;5.462;2023-05-14T07:09:01;18.50;99.90
75430;DHT22;64127;51.488;5.462;2023-05-14T07:11:33;18.50;99.90
75430;DHT22;64127;51.488;5.462;2023-05-14T07:14:05;18.50;99.90
75430;DHT22;64127;51.488;5.462;2023-05-14T07:16:37;18.50;99.90
75430;DHT22;64127;51.488;5.462;2023-05-14T07:19:10;18.60;99.90
75430;DHT22;64127;51.488;5.462;2023-05-14T07:21:43;18.60;99.90
75430;DHT22;64127;51.488;5.462;2023-05-14T07:24:15;18.60;99.90
75430;DHT22;64127;51.488;5.462;2023-05-14T07:26:47;18.70;99.90
75430;DHT22;64127;51.488;5.462;2023-05-14T07:29:19;18.90;99.90
75430;DHT22;64127;51.488;5.462;2023-05-14T07:31:50;19.10;99.90
75430;DHT22;64127;51.488;5.462;2023-05-14T07:34:23;19.30;99.90
75430;DHT22;64127;51.488;5.462;2023-05-14T07:36:55;19.30;99.90
75430;DHT22;64127;51.488;5.462;2023-05-14T07:39:27;19.20;99.90
75430;DHT22;64127;51.488;5.462;2023-05-14T07:42:00;19.20;99.90
75430;DHT22;64127;51.488;5.462;2023-05-14T07:44:32;19.20;99.90
75430;DHT22;64127;51.488;5.462;2023-05-14T07:47:04;19.20;99.90
75430;DHT22;64127;51.488;5.462;2023-05-14T07:49:38;19.30;99.90
75430;DHT22;64127;51.488;5.462;2023-05-14T07:52:10;19.30;99.90
75430;DHT22;64127;51.488;5.462;2023-05-14T07:54:42;19.30;99.90
75430;DHT22;64127;51.488;5.462;2023-05-14T07:57:14;19.30;99.90
75430;DHT22;64127;51.488;5.462;2023-05-14T07:59:47;19.30;99.90
75430;DHT22;64127;51.488;5.462;2023-05-14T08:02:19;19.40;99.90
75430;DHT22;64127;51.488;5.462;2023-05-14T08:04:51;19.60;99.90
75430;DHT22;64127;51.488;5.462;2023-05-14T08:07:23;19.70;99.90
75430;DHT22;64127;51.488;5.462;2023-05-14T08:09:56;19.80;99.90
75430;DHT22;64127;51.488;5.462;2023-05-14T08:12:28;19.80;99.90
75430;DHT22;64127;51.488;5.462;2023-05-14T08:15:00;19.80;99.80
75430;DHT22;64127;51.488;5.462;2023-05-14T08:17:33;20.00;99.70
75430;DHT22;64127;51.488;5.462;2023-05-14T08:20:05;20.20;99.50
75430;DHT22;64127;51.488;5.462;2023-05-14T08:22:38;20.40;99.10
75430;DHT22;64127;51.488;5.462;2023-05-14T08:25:10;20.60;98.70
75430;DHT22;64127;51.488;5.462;2023-05-14T08:27:42;20.80;98.30
75430;DHT22;64127;51.488;5.462;2023-05-14T08:30:14;20.90;97.90
75430;DHT22;64127;51.488;5.462;2023-05-14T08:32:47;21.00;97.60
75430;DHT22;64127;51.488;5.462;2023-05-14T08:35:19;21.20;97.30
75430;DHT22;64127;51.488;5.462;2023-05-14T08:37:51;21.30;96.90
75430;DHT22;64127;51.488;5.462;2023-05-14T08:40:23;21.40;96.50
75430;DHT22;64127;51.488;5.462;2023-05-14T08:42:56;21.50;96.20
75430;DHT22;64127;51.488;5.462;2023-05-14T08:45:30;21.80;95.70
75430;DHT22;64127;51.488;5.462;2023-05-14T08:48:06;21.90;95.20
75430;DHT22;64127;51.488;5.462;2023-05-14T08:50:42;22.10;94.60
75430;DHT22;64127;51.488;5.462;2023-05-14T08:53:14;22.20;94.10
75430;DHT22;64127;51.488;5.462;2023-05-14T08:55:47;22.30;93.50
75430;DHT22;64127;51.488;5.462;2023-05-14T08:58:21;22.20;93.20
75430;DHT22;64127;51.488;5.462;2023-05-14T09:00:57;22.20;92.90
75430;DHT22;64127;51.488;5.462;2023-05-14T09:03:29;22.30;92.90
75430;DHT22;64127;51.488;5.462;2023-05-14T09:06:03;22.40;92.70
75430;DHT22;64127;51.488;5.462;2023-05-14T09:08:36;22.60;92.40
75430;DHT22;64127;51.488;5.462;2023-05-14T09:11:09;22.70;92.00
75430;DHT22;64127;51.488;5.462;2023-05-14T09:13:41;22.90;91.70
75430;DHT22;64127;51.488;5.462;2023-05-14T09:16:13;23.00;91.40
75430;DHT22;64127;51.488;5.462;2023-05-14T09:18:48;23.20;91.20
75430;DHT22;64127;51.488;5.462;2023-05-14T09:21:22;23.20;90.70
75430;DHT22;64127;51.488;5.462;2023-05-14T09:23:56;23.30;90.30
75430;DHT22;64127;51.488;5.462;2023-05-14T09:26:31;23.40;90.20
75430;DHT22;64127;51.488;5.462;2023-05-14T09:29:06;23.40;89.00
75430;DHT22;64127;51.488;5.462;2023-05-14T09:31:38;23.40;88.30
75430;DHT22;64127;51.488;5.462;2023-05-14T09:34:10;23.40;88.50
75430;DHT22;64127;51.488;5.462;2023-05-14T09:36:42;23.40;88.50
75430;DHT22;64127;51.488;5.462;2023-05-14T09:39:14;23.50;87.90
75430;DHT22;64127;51.488;5.462;2023-05-14T09:41:48;23.50;87.00
75430;DHT22;64127;51.488;5.462;2023-05-14T09:44:20;23.60;87.10
75430;DHT22;64127;51.488;5.462;2023-05-14T09:46:54;23.60;86.70
75430;DHT22;64127;51.488;5.462;2023-05-14T09:49:26;23.70;86.20
75430;DHT22;64127;51.488;5.462;2023-05-14T09:52:00;23.80;85.60
75430;DHT22;64127;51.488;5.462;2023-05-14T09:54:34;23.90;84.70
75430;DHT22;64127;51.488;5.462;2023-05-14T09:57:07;24.10;84.90
75430;DHT22;64127;51.488;5.462;2023-05-14T09:59:39;24.20;85.00
75430;DHT22;64127;51.488;5.462;2023-05-14T10:04:54;24.30;83.50
75430;DHT22;64127;51.488;5.462;2023-05-14T10:07:41;24.30;83.70
75430;DHT22;64127;51.488;5.462;2023-05-14T10:10:20;24.40;83.00
75430;DHT22;64127;51.488;5.462;2023-05-14T10:13:02;24.50;82.50
75430;DHT22;64127;51.488;5.462;2023-05-14T10:15:47;24.50;81.00
75430;DHT22;64127;51.488;5.462;2023-05-14T10:18:23;24.50;80.30
75430;DHT22;64127;51.488;5.462;2023-05-14T10:21:03;24.60;79.20
75430;DHT22;64127;51.488;5.462;2023-05-14T10:23:37;24.60;78.80
75430;DHT22;64127;51.488;5.462;2023-05-14T10:26:09;24.70;79.20
75430;DHT22;64127;51.488;5.462;2023-05-14T10:28:42;24.80;78.80
75430;DHT22;64127;51.488;5.462;2023-05-14T10:31:14;24.90;77.80
75430;DHT22;64127;51.488;5.462;2023-05-14T10:33:48;25.00;77.40
75430;DHT22;64127;51.488;5.462;2023-05-14T10:36:21;25.10;77.30
75430;DHT22;64127;51.488;5.462;2023-05-14T10:38:56;25.10;76.70
75430;DHT22;64127;51.488;5.462;2023-05-14T10:41:29;25.20;76.00
75430;DHT22;64127;51.488;5.462;2023-05-14T10:44:07;25.20;75.10
75430;DHT22;64127;51.488;5.462;2023-05-14T10:46:40;25.10;74.60
75430;DHT22;64127;51.488;5.462;2023-05-14T10:49:12;25.10;75.30
75430;DHT22;64127;51.488;5.462;2023-05-14T10:51:47;25.10;75.80
75430;DHT22;64127;51.488;5.462;2023-05-14T10:54:22;25.20;75.60
75430;DHT22;64127;51.488;5.462;2023-05-14T10:56:57;25.20;74.70
75430;DHT22;64127;51.488;5.462;2023-05-14T10:59:32;25.20;74.50
75430;DHT22;64127;51.488;5.462;2023-05-14T11:02:05;25.20;
75430;DHT22;64127;51.488;5.462;2023-05-14T11:04:55;25.30;75.00
75430;DHT22;64127;51.488;5.462;2023-05-14T11:07:42;25.40;75.10
75430;DHT22;64127;51.488;5.462;2023-05-14T11:10:17;25.60;75.20
75430;DHT22;64127;51.488;5.462;2023-05-14T11:12:51;25.70;74.60
75430;DHT22;64127;51.488;5.462;2023-05-14T11:15:24;25.90;73.30
75430;DHT22;64127;51.488;5.462;2023-05-14T11:17:57;25.90;72.50
75430;DHT22;64127;51.488;5.462;2023-05-14T11:20:29;25.90;72.00
75430;DHT22;64127;51.488;5.462;2023-05-14T11:23:03;25.90;71.30
75430;DHT22;64127;51.488;5.462;2023-05-14T11:25:35;26.00;71.40
75430;DHT22;64127;51.488;5.462;2023-05-14T11:28:07;26.00;70.60
75430;DHT22;64127;51.488;5.462;2023-05-14T11:30:39;26.00;70.50
75430;DHT22;64127;51.488;5.462;2023-05-14T11:33:11;25.90;69.90
75430;DHT22;64127;51.488;5.462;2023-05-14T11:35:44;26.00;69.50
75430;DHT22;64127;51.488;5.462;2023-05-14T11:38:18;26.00;68.60
75430;DHT22;64127;51.488;5.462;2023-05-14T11:40:55;25.90;68.20
75430;DHT22;64127;51.488;5.462;2023-05-14T11:43:29;26.10;68.50
75430;DHT22;64127;51.488;5.462;2023-05-14T11:46:01;26.10;68.10
75430;DHT22;64127;51.488;5.462;2023-05-14T11:48:33;26.10;67.40
75430;DHT22;64127;51.488;5.462;2023-05-14T11:51:05;26.10;67.20
75430;DHT22;64127;51.488;5.462;2023-05-14T11:53:37;26.10;66.80
75430;DHT22;64127;51.488;5.462;2023-05-14T11:56:09;26.10;67.10
75430;DHT22;64127;51.488;5.462;2023-05-14T11:58:54;26.10;67.20
75430;DHT22;64127;51.488;5.462;2023-05-14T12:01:27;26.10;66.80
75430;DHT22;64127;51.488;5.462;2023-05-14T12:04:00;26.10;66.70
75430;DHT22;64127;51.488;5.462;2023-05-14T12:06:35;26.10;66.50
75430;DHT22;64127;51.488;5.462;2023-05-14T12:09:11;26.10;66.60
75430;DHT22;64127;51.488;5.462;2023-05-14T12:11:44;26.10;66.00
75430;DHT22;64127;51.488;5.462;2023-05-14T12:14:21;26.20;65.40
75430;DHT22;64127;51.488;5.462;2023-05-14T12:16:54;26.30;64.40
75430;DHT22;64127;51.488;5.462;2023-05-14T12:19:29;26.30;63.00
75430;DHT22;64127;51.488;5.462;2023-05-14T12:22:01;26.40;62.40
75430;DHT22;64127;51.488;5.462;2023-05-14T12:24:33;26.30;61.80
75430;DHT22;64127;51.488;5.462;2023-05-14T12:27:06;26.20;61.80
75430;DHT22;64127;51.488;5.462;2023-05-14T12:29:42;26.20;61.30
75430;DHT22;64127;51.488;5.462;2023-05-14T12:32:14;26.30;60.20
75430;DHT22;64127;51.488;5.462;2023-05-14T12:34:46;26.30;59.80
75430;DHT22;64127;51.488;5.462;2023-05-14T12:37:18;26.30;59.60
75430;DHT22;64127;51.488;5.462;2023-05-14T12:39:50;26.40;59.70
75430;DHT22;64127;51.488;5.462;2023-05-14T12:42:22;26.30;59.30
75430;DHT22;64127;51.488;5.462;2023-05-14T12:44:54;26.40;58.70
75430;DHT22;64127;51.488;5.462;2023-05-14T12:47:26;26.40;57.90
75430;DHT22;64127;51.488;5.462;2023-05-14T12:49:58;26.40;57.00
75430;DHT22;64127;51.488;5.462;2023-05-14T12:52:30;26.30;56.20
75430;DHT22;64127;51.488;5.462;2023-05-14T12:55:10;26.40;55.60
75430;DHT22;64127;51.488;5.462;2023-05-14T12:57:42;26.50;55.00
75430;DHT22;64127;51.488;5.462;2023-05-14T13:00:14;26.60;54.70
75430;DHT22;64127;51.488;5.462;2023-05-14T13:02:46;26.60;53.70
75430;DHT22;64127;51.488;5.462;2023-05-14T13:05:18;26.70;52.60
75430;DHT22;64127;51.488;5.462;2023-05-14T13:07:52;26.70;53.00
75430;DHT22;64127;51.488;5.462;2023-05-14T13:10:24;26.70;52.80
75430;DHT22;64127;51.488;5.462;2023-05-14T13:12:56;26.70;52.10
75430;DHT22;64127;51.488;5.462;2023-05-14T13:15:28;26.60;51.40
75430;DHT22;64127;51.488;5.462;2023-05-14T13:18:02;26.50;50.80
75430;DHT22;64127;51.488;5.462;2023-05-14T13:20:35;26.50;51.00
75430;DHT22;64127;51.488;5.462;2023-05-14T13:23:07;26.50;51.40
75430;DHT22;64127;51.488;5.462;2023-05-14T13:25:39;26.70;51.80
75430;DHT22;64127;51.488;5.462;2023-05-14T13:28:11;26.80;52.00
75430;DHT22;64127;51.488;5.462;2023-05-14T13:31:03;26.90;52.10
75430;DHT22;64127;51.488;5.462;2023-05-14T13:33:41;27.00;51.60
75430;DHT22;64127;51.488;5.462;2023-05-14T13:36:13;27.10;52.10
75430;DHT22;64127;51.488;5.462;2023-05-14T13:38:46;27.20;52.50
75430;DHT22;64127;51.488;5.462;2023-05-14T13:41:19;27.30;51.80
75430;DHT22;64127;51.488;5.462;2023-05-14T13:43:52;27.30;50.10
75430;DHT22;64127;51.488;5.462;2023-05-14T13:46:24;27.10;49.70
75430;DHT22;64127;51.488;5.462;2023-05-14T13:48:56;27.10;49.70
75430;DHT22;64127;51.488;5.462;2023-05-14T13:51:28;27.10;49.90
75430;DHT22;64127;51.488;5.462;2023-05-14T13:54:00;27.10;50.00
75430;DHT22;64127;51.488;5.462;2023-05-14T13:56:32;27.20;49.90
75430;DHT22;64127;51.488;5.462;2023-05-14T13:59:04;27.20;49.90
75430;DHT22;64127;51.488;5.462;2023-05-14T14:01:36;27.20;50.60
75430;DHT22;64127;51.488;5.462;2023-05-14T14:04:09;27.20;51.20
75430;DHT22;64127;51.488;5.462;2023-05-14T14:06:41;27.10;51.30
75430;DHT22;64127;51.488;5.462;2023-05-14T14:09:13;27.00;52.10
75430;DHT22;64127;51.488;5.462;2023-05-14T14:11:45;26.90;52.50
75430;DHT22;64127;51.488;5.462;2023-05-14T14:14:17;26.90;52.80
75430;DHT22;64127;51.488;5.462;2023-05-14T14:16:49;26.80;53.00
75430;DHT22;64127;51.488;5.462;2023-05-14T14:19:21;26.60;53.40
75430;DHT22;64127;51.488;5.462;2023-05-14T14:21:53;26.60;53.50
75430;DHT22;64127;51.488;5.462;2023-05-14T14:24:25;26.50;53.20
75430;DHT22;64127;51.488;5.462;2023-05-14T14:26:57;26.50;53.10
75430;DHT22;64127;51.488;5.462;2023-05-14T14:29:29;26.40;53.20
75430;DHT22;64127;51.488;5.462;2023-05-14T14:32:02;26.40;52.90
75430;DHT22;64127;51.488;5.462;2023-05-14T14:34:35;26.30;53.00
75430;DHT22;64127;51.488;5.462;2023-05-14T14:37:07;26.30;53.30
75430;DHT22;64127;51.488;5.462;2023-05-14T14:39:39;26.20;53.60
75430;DHT22;64127;51.488;5.462;2023-05-14T14:42:11;26.10;54.00
75430;DHT22;64127;51.488;5.462;2023-05-14T14:44:43;26.00;54.30
75430;DHT22;64127;51.488;5.462;2023-05-14T14:47:15;26.00;54.40
75430;DHT22;64127;51.488;5.462;2023-05-14T14:49:47;25.80;54.30
75430;DHT22;64127;51.488;5.462;2023-05-14T14:52:19;25.80;54.60
75430;DHT22;64127;51.488;5.462;2023-05-14T14:54:51;25.70;54.60
75430;DHT22;64127;51.488;5.462;2023-05-14T14:57:24;25.60;54.50
75430;DHT22;64127;51.488;5.462;2023-05-14T14:59:57;25.50;54.70
75430;DHT22;64127;51.488;5.462;2023-05-14T15:02:32;25.30;54.50
75430;DHT22;64127;51.488;5.462;2023-05-14T15:05:04;25.30;54.70
75430;DHT22;64127;51.488;5.462;2023-05-14T15:07:37;25.20;55.20
75430;DHT22;64127;51.488;5.462;2023-05-14T15:10:09;25.20;55.60
75430;DHT22;64127;51.488;5.462;2023-05-14T15:12:41;25.10;55.90
75430;DHT22;64127;51.488;5.462;2023-05-14T15:15:13;25.00;56.20
75430;DHT22;64127;51.488;5.462;2023-05-14T15:17:45;24.90;56.40
75430;DHT22;64127;51.488;5.462;2023-05-14T15:20:17;24.90;56.90
75430;DHT22;64127;51.488;5.462;2023-05-14T15:22:49;24.80;57.20
75430;DHT22;64127;51.488;5.462;2023-05-14T15:25:25;24.80;57.40
75430;DHT22;64127;51.488;5.462;2023-05-14T15:27:57;24.70;57.60
75430;DHT22;64127;51.488;5.462;2023-05-14T15:30:29;24.70;57.80
75430;DHT22;64127;51.488;5.462;2023-05-14T15:33:01;24.60;58.00
75430;DHT22;64127;51.488;5.462;2023-05-14T15:35:34;24.60;58.30
75430;DHT22;64127;51.488;5.462;2023-05-14T15:38:07;24.60;58.50
75430;DHT22;64127;51.488;5.462;2023-05-14T15:40:39;24.60;59.00
75430;DHT22;64127;51.488;5.462;2023-05-14T15:43:12;24.50;59.40
75430;DHT22;64127;51.488;5.462;2023-05-14T15:45:44;24.40;59.50
75430;DHT22;64127;51.488;5.462;2023-05-14T15:48:16;24.40;59.50
75430;DHT22;64127;51.488;5.462;2023-05-14T15:50:48;24.30;59.40
75430;DHT22;64127;51.488;5.462;2023-05-14T15:53:21;24.20;59.60
75430;DHT22;64127;51.488;5.462;2023-05-14T15:55:53;24.20;59.70
75430;DHT22;64127;51.488;5.462;2023-05-14T15:58:25;24.10;59.40
75430;DHT22;64127;51.488;5.462;2023-05-14T16:00:57;24.10;59.40
75430;DHT22;64127;51.488;5.462;2023-05-14T16:03:29;24.10;59.40
75430;DHT22;64127;51.488;5.462;2023-05-14T16:06:01;24.10;59.30
75430;DHT22;64127;51.488;5.462;2023-05-14T16:08:33;24.20;59.40
75430;DHT22;64127;51.488;5.462;2023-05-14T16:11:06;24.20;59.30
75430;DHT22;64127;51.488;5.462;2023-05-14T16:13:38;24.30;58.80